createdAt,value
2017-10-24T00:00:25.053Z,12.40
2017-10-24T00:02:51.337Z,9.85
2017-10-24T00:05:17.613Z,10.05
2017-10-24T00:07:43.909Z,9.40
2017-10-24T00:10:10.974Z,8.68
2017-10-24T00:12:37.275Z,9.43
2017-10-24T00:15:03.587Z,8.43
2017-10-24T00:17:29.898Z,12.45
2017-10-24T00:19:56.214Z,9.40
2017-10-24T00:22:22.517Z,7.62
2017-10-24T00:24:48.793Z,8.02
2017-10-24T00:27:15.086Z,10.57
2017-10-24T00:29:41.384Z,8.95
2017-10-24T00:32:08.428Z,8.63
2017-10-24T00:34:34.770Z,10.10
2017-10-24T00:37:01.090Z,14.85
2017-10-24T00:39:28.127Z,9.52
2017-10-24T00:41:55.195Z,9.75
2017-10-24T00:44:21.521Z,11.43
2017-10-24T00:46:47.832Z,9.20
2017-10-24T00:49:14.891Z,10.65
2017-10-24T00:51:41.200Z,9.88
2017-10-24T00:54:08.318Z,11.43
2017-10-24T00:56:36.116Z,10.45
2017-10-24T00:59:03.198Z,6.40
2017-10-24T01:01:29.519Z,14.87
2017-10-24T01:03:56.584Z,12.73
2017-10-24T01:06:23.272Z,9.73
2017-10-24T01:08:49.581Z,7.80
2017-10-24T01:11:15.900Z,9.85
2017-10-24T01:13:42.222Z,7.37
2017-10-24T01:16:08.540Z,8.85
2017-10-24T01:18:34.909Z,7.72
2017-10-24T01:21:01.273Z,8.23
2017-10-24T01:23:28.503Z,9.27
2017-10-24T01:25:54.866Z,7.57
2017-10-24T01:28:21.178Z,8.63
2017-10-24T01:30:47.517Z,8.55
2017-10-24T01:33:13.874Z,7.55
2017-10-24T01:35:40.256Z,9.43
2017-10-24T01:38:06.654Z,6.25
2017-10-24T01:40:33.028Z,8.20
2017-10-24T01:42:59.393Z,6.10
2017-10-24T01:45:26.039Z,6.75
2017-10-24T01:47:52.383Z,6.85
2017-10-24T01:50:19.481Z,9.73
2017-10-24T01:52:45.831Z,6.80
2017-10-24T01:55:12.232Z,6.85
2017-10-24T01:57:38.591Z,8.02
2017-10-24T02:00:04.915Z,8.38
2017-10-24T02:02:31.300Z,9.82
2017-10-24T02:04:57.646Z,9.05
2017-10-24T02:07:24.013Z,10.68
2017-10-24T02:09:50.327Z,6.78
2017-10-24T02:12:16.688Z,8.73
2017-10-24T02:14:43.028Z,8.40
2017-10-24T02:17:10.100Z,8.90
2017-10-24T02:19:36.418Z,10.75
2017-10-24T02:22:03.503Z,7.15
2017-10-24T02:24:30.579Z,8.15
2017-10-24T02:26:56.879Z,7.45
2017-10-24T02:29:23.441Z,7.15
2017-10-24T02:31:49.740Z,6.75
2017-10-24T02:34:16.072Z,7.53
2017-10-24T02:36:42.372Z,7.25
2017-10-24T02:39:08.679Z,9.63
2017-10-24T02:41:35.771Z,6.82
2017-10-24T02:44:02.090Z,8.55
2017-10-24T02:46:28.432Z,6.35
2017-10-24T02:48:54.727Z,8.77
2017-10-24T02:51:21.102Z,6.10
2017-10-24T02:53:47.468Z,9.90
2017-10-24T02:56:14.486Z,6.85
2017-10-24T02:58:40.788Z,8.63
2017-10-24T03:01:07.099Z,8.10
2017-10-24T03:03:33.434Z,9.68
2017-10-24T03:05:59.747Z,8.18
2017-10-24T03:08:26.074Z,10.43
2017-10-24T03:10:52.395Z,7.55
2017-10-24T03:13:19.466Z,8.57
2017-10-24T03:15:45.779Z,6.55
2017-10-24T03:18:12.070Z,6.60
2017-10-24T03:20:38.426Z,6.18
2017-10-24T03:23:05.501Z,8.23
2017-10-24T03:25:31.817Z,8.70
2017-10-24T03:27:58.125Z,9.18
2017-10-24T03:30:25.181Z,5.93
2017-10-24T03:32:51.463Z,6.47
2017-10-24T03:35:17.805Z,7.72
2017-10-24T03:37:44.093Z,9.38
2017-10-24T03:40:10.397Z,7.57
2017-10-24T03:42:37.476Z,5.25
2017-10-24T03:45:03.801Z,8.40
2017-10-24T03:47:30.092Z,6.20
2017-10-24T03:49:57.124Z,9.85
2017-10-24T03:52:23.427Z,6.20
2017-10-24T03:54:49.722Z,7.90
2017-10-24T03:57:16.055Z,7.30
2017-10-24T03:59:42.364Z,7.07
2017-10-24T04:02:08.689Z,8.98
2017-10-24T04:04:35.052Z,6.60
2017-10-24T04:07:02.634Z,5.30
2017-10-24T04:09:28.977Z,4.32
2017-10-24T04:11:55.291Z,5.95
2017-10-24T04:14:21.610Z,5.82
2017-10-24T04:16:47.955Z,5.03
2017-10-24T04:19:14.247Z,4.90
2017-10-24T04:21:40.558Z,9.30
2017-10-24T04:24:06.891Z,5.85
2017-10-24T04:26:33.192Z,8.52
2017-10-24T04:29:00.266Z,8.45
2017-10-24T04:31:26.616Z,11.85
2017-10-24T04:33:52.932Z,5.45
2017-10-24T04:36:19.264Z,4.07
2017-10-24T04:38:45.578Z,6.85
2017-10-24T04:41:11.867Z,4.53
2017-10-24T04:43:38.186Z,3.25
2017-10-24T04:46:04.506Z,5.95
2017-10-24T04:48:30.790Z,4.00
2017-10-24T04:50:57.105Z,4.10
2017-10-24T04:53:23.398Z,7.40
2017-10-24T04:55:49.699Z,5.85
2017-10-24T04:58:15.989Z,3.00
2017-10-24T05:00:42.307Z,12.32
2017-10-24T05:03:09.357Z,6.85
2017-10-24T05:05:36.391Z,4.50
2017-10-24T05:08:03.430Z,3.65
2017-10-24T05:10:30.482Z,3.25
2017-10-24T05:12:57.538Z,3.50
2017-10-24T05:15:24.569Z,4.40
2017-10-24T05:17:51.595Z,4.05
2017-10-24T05:20:17.955Z,3.25
2017-10-24T05:22:45.023Z,2.20
2017-10-24T05:25:11.328Z,4.15
2017-10-24T05:27:38.361Z,2.90
2017-10-24T05:30:05.442Z,3.40
2017-10-24T05:32:31.730Z,3.80
2017-10-24T05:34:58.041Z,2.83
2017-10-24T05:37:24.336Z,5.72
2017-10-24T05:39:50.626Z,2.53
2017-10-24T05:42:17.705Z,2.90
2017-10-24T05:44:44.021Z,3.12
2017-10-24T05:47:10.313Z,2.75
2017-10-24T05:49:36.635Z,3.08
2017-10-24T05:52:02.967Z,2.33
2017-10-24T05:54:29.412Z,4.25
2017-10-24T05:56:56.468Z,3.50
2017-10-24T05:59:22.749Z,3.85
2017-10-24T06:01:49.042Z,2.37
2017-10-24T06:04:15.352Z,2.22
2017-10-24T06:06:42.377Z,3.25
2017-10-24T06:09:08.697Z,4.80
2017-10-24T06:11:34.975Z,4.45
2017-10-24T06:14:01.262Z,4.15
2017-10-24T06:16:27.543Z,2.75
2017-10-24T06:18:53.867Z,3.35
2017-10-24T06:21:20.145Z,3.42
2017-10-24T06:23:46.459Z,4.12
2017-10-24T06:26:12.781Z,4.03
2017-10-24T06:28:39.066Z,7.40
2017-10-24T06:31:05.372Z,3.10
2017-10-24T06:33:32.427Z,2.40
2017-10-24T06:35:59.497Z,7.18
2017-10-24T06:38:25.799Z,3.33
2017-10-24T06:40:52.851Z,3.03
2017-10-24T06:43:19.180Z,3.12
2017-10-24T06:45:46.208Z,3.47
2017-10-24T06:48:12.502Z,4.40
2017-10-24T06:50:38.797Z,3.65
2017-10-24T06:53:05.090Z,3.83
2017-10-24T06:55:31.487Z,2.72
2017-10-24T06:57:57.889Z,2.50
2017-10-24T07:00:24.181Z,2.80
2017-10-24T07:02:50.494Z,3.12
2017-10-24T07:05:16.831Z,2.50
2017-10-24T07:07:43.160Z,3.72
2017-10-24T07:10:09.495Z,3.22
2017-10-24T07:12:35.884Z,2.45
2017-10-24T07:15:02.249Z,6.68
2017-10-24T07:17:28.553Z,1.90
2017-10-24T07:19:54.843Z,12.23
2017-10-24T07:22:21.169Z,4.70
2017-10-24T07:24:47.465Z,4.45
2017-10-24T07:27:13.801Z,2.62
2017-10-24T07:29:40.818Z,3.10
2017-10-24T07:32:07.151Z,3.95
2017-10-24T07:34:33.429Z,2.58
2017-10-24T07:36:59.729Z,2.10
2017-10-24T07:39:26.831Z,2.95
2017-10-24T07:41:53.446Z,3.60
2017-10-24T07:44:19.773Z,2.65
2017-10-24T07:46:46.051Z,1.67
2017-10-24T07:49:12.395Z,3.28
2017-10-24T07:51:39.446Z,10.65
2017-10-24T07:54:06.608Z,12.37
2017-10-24T07:56:32.904Z,7.37
2017-10-24T07:58:59.235Z,3.97
2017-10-24T08:01:25.564Z,2.70
2017-10-24T08:03:51.874Z,2.92
2017-10-24T08:06:18.191Z,1.80
2017-10-24T08:08:44.497Z,1.67
2017-10-24T08:11:11.551Z,1.30
2017-10-24T08:13:37.855Z,1.50
2017-10-24T08:16:04.175Z,2.67
2017-10-24T08:18:31.213Z,1.90
2017-10-24T08:20:58.284Z,3.30
2017-10-24T08:23:24.571Z,2.37
2017-10-24T08:25:50.919Z,1.93
2017-10-24T08:28:17.951Z,1.63
2017-10-24T08:30:44.284Z,2.33
2017-10-24T08:33:10.547Z,1.13
2017-10-24T08:35:36.870Z,1.40
2017-10-24T08:38:03.143Z,1.63
2017-10-24T08:40:29.433Z,0.90
2017-10-24T08:42:55.743Z,1.43
2017-10-24T08:45:22.771Z,1.23
2017-10-24T08:47:49.109Z,1.40
2017-10-24T08:50:16.178Z,1.20
2017-10-24T08:52:42.473Z,2.73
2017-10-24T08:55:09.639Z,0.93
2017-10-24T08:57:36.707Z,2.47
2017-10-24T09:00:03.103Z,1.03
2017-10-24T09:02:30.207Z,2.70
2017-10-24T09:04:56.533Z,1.33
2017-10-24T09:07:22.854Z,1.67
2017-10-24T09:09:49.142Z,1.30
2017-10-24T09:12:15.463Z,1.97
2017-10-24T09:14:42.534Z,1.53
2017-10-24T09:17:33.697Z,1.20
2017-10-24T09:20:01.313Z,3.63
2017-10-24T09:22:27.592Z,3.10
2017-10-24T09:24:53.905Z,1.47
2017-10-24T09:27:20.193Z,3.00
2017-10-24T09:29:46.489Z,1.40
2017-10-24T09:32:12.821Z,1.20
2017-10-24T09:34:39.918Z,1.40
2017-10-24T09:37:06.293Z,1.50
2017-10-24T09:39:33.333Z,1.83
2017-10-24T09:41:59.690Z,1.90
2017-10-24T09:44:26.039Z,3.07
2017-10-24T09:46:52.385Z,1.47
2017-10-24T09:49:18.737Z,1.07
2017-10-24T09:51:45.062Z,1.27
2017-10-24T09:54:11.525Z,1.37
2017-10-24T09:56:46.377Z,1.30
2017-10-24T09:59:31.387Z,1.37
2017-10-24T10:01:57.684Z,2.00
2017-10-24T10:04:24.044Z,2.53
2017-10-24T10:06:58.389Z,1.17
2017-10-24T10:09:25.441Z,1.40
2017-10-24T10:11:52.471Z,1.10
2017-10-24T10:14:18.797Z,1.30
2017-10-24T10:16:45.096Z,4.37
2017-10-24T10:19:11.404Z,3.50
2017-10-24T10:21:37.752Z,1.00
2017-10-24T10:24:04.052Z,1.50
2017-10-24T10:26:30.386Z,1.53
2017-10-24T10:28:56.710Z,2.60
2017-10-24T10:31:23.072Z,1.30
2017-10-24T10:33:49.415Z,1.37
2017-10-24T10:36:15.752Z,1.10
2017-10-24T10:38:42.338Z,1.40
2017-10-24T10:41:08.634Z,3.40
2017-10-24T10:43:35.674Z,1.73
2017-10-24T10:46:02.763Z,1.77
2017-10-24T10:48:29.061Z,1.40
2017-10-24T10:50:55.393Z,2.70
2017-10-24T10:53:22.423Z,2.80
2017-10-24T10:55:48.721Z,2.10
2017-10-24T10:58:14.990Z,1.17
2017-10-24T11:00:42.063Z,1.70
2017-10-24T11:03:08.368Z,1.50
2017-10-24T11:05:34.679Z,1.27
2017-10-24T11:08:00.971Z,3.93
2017-10-24T11:10:32.179Z,1.00
2017-10-24T11:12:59.275Z,1.00
2017-10-24T11:15:25.574Z,4.00
2017-10-24T11:17:51.855Z,1.10
2017-10-24T11:20:18.188Z,1.17
2017-10-24T11:22:45.245Z,1.80
2017-10-24T11:25:12.255Z,1.53
2017-10-24T11:27:38.597Z,3.93
2017-10-24T11:30:04.985Z,1.57
2017-10-24T11:32:31.270Z,1.33
2017-10-24T11:34:58.302Z,4.47
2017-10-24T11:37:24.597Z,1.40
2017-10-24T11:39:50.901Z,2.17
2017-10-24T11:42:17.224Z,8.00
2017-10-24T11:44:43.521Z,1.20
2017-10-24T11:47:09.848Z,1.77
2017-10-24T11:49:36.147Z,2.43
2017-10-24T11:52:02.429Z,1.93
2017-10-24T11:54:28.823Z,2.73
2017-10-24T11:56:55.122Z,2.53
2017-10-24T11:59:21.418Z,2.93
2017-10-24T12:01:48.455Z,4.67
2017-10-24T12:04:14.753Z,1.60
2017-10-24T12:06:41.053Z,1.67
2017-10-24T12:09:07.370Z,2.30
2017-10-24T12:11:33.671Z,2.47
2017-10-24T12:13:59.966Z,4.30
2017-10-24T12:16:26.267Z,1.40
2017-10-24T12:18:52.588Z,6.37
2017-10-24T12:21:19.167Z,2.07
2017-10-24T12:23:45.484Z,1.47
2017-10-24T12:26:11.781Z,1.87
2017-10-24T12:28:38.073Z,4.93
2017-10-24T12:31:04.399Z,1.73
2017-10-24T12:33:31.466Z,1.40
2017-10-24T12:35:57.779Z,1.83
2017-10-24T12:38:24.091Z,2.00
2017-10-24T12:40:51.183Z,2.73
2017-10-24T12:43:17.512Z,2.40
2017-10-24T12:45:43.869Z,2.63
2017-10-24T12:48:10.207Z,2.60
2017-10-24T12:50:39.083Z,1.90
2017-10-24T12:53:05.399Z,2.50
2017-10-24T12:55:31.762Z,3.40
2017-10-24T12:58:08.029Z,2.30
2017-10-24T13:00:48.307Z,6.70
2017-10-24T13:03:14.765Z,4.77
2017-10-24T13:05:41.097Z,2.50
2017-10-24T13:08:10.960Z,2.00
2017-10-24T13:10:38.064Z,3.80
2017-10-24T13:13:04.398Z,2.67
2017-10-24T13:15:30.781Z,1.70
2017-10-24T13:17:57.815Z,2.90
2017-10-24T13:20:24.930Z,1.77
2017-10-24T13:22:51.239Z,2.17
2017-10-24T13:25:17.795Z,1.90
2017-10-24T13:27:44.095Z,2.13
2017-10-24T13:30:10.412Z,4.60
2017-10-24T13:32:36.788Z,4.67
2017-10-24T13:35:03.113Z,5.37
2017-10-24T13:37:29.435Z,4.37
2017-10-24T13:39:55.722Z,2.13
2017-10-24T13:42:22.009Z,7.63
2017-10-24T13:44:48.305Z,2.97
2017-10-24T13:47:14.601Z,4.30
2017-10-24T13:49:40.917Z,3.70
2017-10-24T13:52:07.216Z,3.30
2017-10-24T13:54:33.556Z,5.17
2017-10-24T13:56:59.854Z,4.47
2017-10-24T13:59:26.561Z,3.20
2017-10-24T14:01:52.929Z,2.17
2017-10-24T14:04:25.284Z,2.97
2017-10-24T14:06:57.634Z,2.70
2017-10-24T14:09:29.897Z,6.23
2017-10-24T14:11:56.211Z,2.97
2017-10-24T14:14:23.280Z,5.20
2017-10-24T14:16:49.606Z,2.67
2017-10-24T14:19:15.967Z,2.70
2017-10-24T14:21:42.274Z,3.23
2017-10-24T14:24:08.584Z,5.67
2017-10-24T14:26:34.874Z,2.83
2017-10-24T14:29:01.209Z,3.40
2017-10-24T14:31:27.507Z,5.30
2017-10-24T14:33:53.874Z,3.50
2017-10-24T14:36:20.196Z,2.60
2017-10-24T14:38:46.495Z,4.67
2017-10-24T14:41:12.806Z,3.73
2017-10-24T14:43:39.144Z,3.20
2017-10-24T14:46:05.445Z,2.50
2017-10-24T14:48:31.811Z,2.50
2017-10-24T14:50:58.150Z,2.17
2017-10-24T14:53:24.429Z,2.63
2017-10-24T14:55:50.747Z,3.53
2017-10-24T14:58:17.772Z,3.03
2017-10-24T15:00:44.847Z,2.43
2017-10-24T15:03:11.161Z,2.50
2017-10-24T15:05:37.511Z,3.07
2017-10-24T15:08:03.829Z,8.23
2017-10-24T15:10:30.179Z,7.77
2017-10-24T15:12:56.472Z,5.87
2017-10-24T15:15:23.549Z,1.97
2017-10-24T15:17:49.849Z,2.23
2017-10-24T15:20:16.960Z,2.10
2017-10-24T15:22:43.376Z,4.90
2017-10-24T15:25:09.703Z,4.20
2017-10-24T15:27:36.014Z,4.57
2017-10-24T15:30:02.371Z,2.67
2017-10-24T15:32:28.679Z,3.60
2017-10-24T15:34:55.017Z,3.80
2017-10-24T15:37:21.326Z,3.13
2017-10-24T15:39:47.908Z,2.93
2017-10-24T15:42:14.226Z,3.00
2017-10-24T15:44:40.545Z,4.20
2017-10-24T15:47:06.854Z,6.70
2017-10-24T15:49:33.917Z,3.13
2017-10-24T15:52:00.267Z,6.60
2017-10-24T15:54:26.582Z,4.13
2017-10-24T15:56:52.931Z,2.80
2017-10-24T15:59:19.977Z,6.60
2017-10-24T16:01:46.328Z,5.50
2017-10-24T16:04:12.620Z,6.80
2017-10-24T16:06:38.914Z,5.23
2017-10-24T16:09:05.239Z,3.27
2017-10-24T16:11:31.581Z,8.53
2017-10-24T16:13:57.905Z,2.43
2017-10-24T16:16:24.215Z,4.13
2017-10-24T16:18:50.513Z,3.53
2017-10-24T16:21:17.596Z,2.30
2017-10-24T16:23:43.938Z,3.93
2017-10-24T16:26:10.215Z,12.00
2017-10-24T16:28:37.277Z,2.13
2017-10-24T16:31:04.594Z,2.50
2017-10-24T16:33:31.029Z,5.80
2017-10-24T16:35:57.321Z,2.60
2017-10-24T16:38:23.668Z,4.10
2017-10-24T16:40:49.898Z,2.97
2017-10-24T16:43:16.188Z,3.70
2017-10-24T16:45:42.510Z,5.27
2017-10-24T16:48:08.804Z,5.87
2017-10-24T16:50:35.862Z,3.93
2017-10-24T16:53:02.129Z,5.20
2017-10-24T16:55:28.450Z,2.80
2017-10-24T16:57:54.750Z,5.20
2017-10-24T17:00:21.812Z,9.33
2017-10-24T17:02:48.115Z,7.23
2017-10-24T17:05:14.422Z,8.60
2017-10-24T17:07:40.803Z,10.90
2017-10-24T17:10:07.101Z,14.03
2017-10-24T17:12:33.462Z,9.40
2017-10-24T17:14:59.838Z,14.67
2017-10-24T17:17:26.137Z,12.70
2017-10-24T17:19:52.432Z,13.90
2017-10-24T17:22:19.463Z,13.40
2017-10-24T17:24:46.529Z,15.40
2017-10-24T17:27:12.867Z,10.33
2017-10-24T17:29:39.157Z,10.60
2017-10-24T17:32:05.661Z,15.20
2017-10-24T17:34:32.036Z,13.80
2017-10-24T17:36:59.121Z,26.47
2017-10-24T17:39:25.498Z,15.10
2017-10-24T17:41:51.853Z,21.37
2017-10-24T17:44:18.147Z,10.93
2017-10-24T17:46:44.478Z,13.50
2017-10-24T17:49:10.865Z,17.23
2017-10-24T17:51:37.190Z,7.67
2017-10-24T17:54:04.225Z,10.20
2017-10-24T17:56:30.582Z,6.13
2017-10-24T17:58:57.164Z,15.20
2017-10-24T18:01:23.779Z,9.60
2017-10-24T18:03:50.135Z,7.10
2017-10-24T18:06:17.250Z,8.47
2017-10-24T18:08:43.594Z,9.00
2017-10-24T18:11:10.011Z,8.17
2017-10-24T18:13:36.384Z,8.40
2017-10-24T18:16:02.756Z,10.23
2017-10-24T18:18:29.084Z,7.47
2017-10-24T18:20:55.469Z,9.33
2017-10-24T18:23:21.829Z,8.67
2017-10-24T18:25:48.321Z,7.83
2017-10-24T18:28:14.725Z,11.77
2017-10-24T18:30:41.034Z,7.83
2017-10-24T18:33:07.444Z,9.17
2017-10-24T18:35:33.824Z,10.47
2017-10-24T18:38:00.280Z,7.50
2017-10-24T18:40:27.332Z,8.50
2017-10-24T18:42:53.701Z,9.77
2017-10-24T18:45:20.050Z,8.93
2017-10-24T18:47:46.456Z,7.70
2017-10-24T18:50:12.816Z,12.57
2017-10-24T18:52:39.198Z,8.17
2017-10-24T18:55:05.619Z,9.97
2017-10-24T18:57:32.028Z,7.90
2017-10-24T18:59:58.497Z,12.00
2017-10-24T19:02:24.925Z,10.80
2017-10-24T19:04:51.336Z,11.10
2017-10-24T19:07:17.781Z,14.27
2017-10-24T19:09:44.114Z,12.73
2017-10-24T19:12:10.606Z,15.23
2017-10-24T19:14:37.748Z,16.07
2017-10-24T19:17:05.195Z,17.90
2017-10-24T19:19:31.605Z,18.87
2017-10-24T19:21:57.985Z,17.37
2017-10-24T19:24:24.611Z,17.00
2017-10-24T19:26:51.778Z,13.13
2017-10-24T19:29:18.196Z,18.47
2017-10-24T19:31:45.319Z,17.47
2017-10-24T19:34:11.724Z,18.20
2017-10-24T19:36:38.163Z,18.40
2017-10-24T19:39:04.570Z,17.53
2017-10-24T19:41:30.969Z,13.30
2017-10-24T19:43:58.101Z,15.67
2017-10-24T19:46:25.192Z,14.50
2017-10-24T19:48:51.581Z,16.37
2017-10-24T19:51:18.730Z,15.40
2017-10-24T19:53:45.814Z,13.37
2017-10-24T19:56:12.931Z,13.03
2017-10-24T19:58:40.013Z,12.90
2017-10-24T20:01:06.437Z,12.57
2017-10-24T20:03:32.782Z,15.50
2017-10-24T20:05:59.089Z,18.40
2017-10-24T20:08:25.414Z,15.27
2017-10-24T20:10:51.727Z,19.40
2017-10-24T20:13:19.100Z,21.10
2017-10-24T20:15:45.441Z,19.27
2017-10-24T20:18:11.761Z,16.90
2017-10-24T20:20:38.139Z,15.23
2017-10-24T20:23:04.442Z,13.30
2017-10-24T20:25:30.738Z,7.30
2017-10-24T20:27:57.040Z,7.43
2017-10-24T20:30:23.428Z,7.33
2017-10-24T20:32:49.767Z,10.47
2017-10-24T20:35:16.093Z,7.33
2017-10-24T20:37:42.445Z,9.03
2017-10-24T20:40:08.760Z,8.80
2017-10-24T20:42:35.091Z,6.53
2017-10-24T20:45:01.406Z,6.90
2017-10-24T20:47:27.991Z,12.50
2017-10-24T20:49:55.042Z,7.07
2017-10-24T20:52:22.081Z,8.40
2017-10-24T20:54:49.125Z,8.80
2017-10-24T20:57:16.148Z,8.20
2017-10-24T20:59:43.239Z,5.63
2017-10-24T21:02:09.530Z,6.27
2017-10-24T21:04:35.895Z,8.10
2017-10-24T21:07:02.300Z,5.97
2017-10-24T21:09:29.355Z,4.93
2017-10-24T21:11:56.679Z,5.80
2017-10-24T21:14:22.973Z,7.50
2017-10-24T21:16:50.464Z,11.00
2017-10-24T21:19:16.744Z,5.53
2017-10-24T21:21:43.055Z,4.70
2017-10-24T21:24:09.367Z,13.13
2017-10-24T21:26:36.461Z,8.07
2017-10-24T21:29:02.800Z,4.20
2017-10-24T21:31:29.093Z,5.03
2017-10-24T21:33:55.401Z,4.73
2017-10-24T21:36:21.788Z,3.40
2017-10-24T21:38:48.379Z,4.20
2017-10-24T21:41:14.657Z,5.80
2017-10-24T21:43:40.920Z,3.00
2017-10-24T21:46:07.883Z,3.40
2017-10-24T21:48:34.180Z,2.97
2017-10-24T21:51:01.212Z,4.53
2017-10-24T21:53:27.514Z,3.33
2017-10-24T21:55:53.820Z,4.20
2017-10-24T21:58:20.172Z,2.53
2017-10-24T22:00:50.426Z,3.37
2017-10-24T22:03:16.706Z,3.62
2017-10-24T22:05:42.968Z,4.67
2017-10-24T22:08:09.269Z,3.33
2017-10-24T22:10:35.559Z,3.80
2017-10-24T22:13:02.643Z,3.97
2017-10-24T22:15:28.952Z,2.95
2017-10-24T22:17:55.578Z,3.58
2017-10-24T22:20:21.888Z,3.55
2017-10-24T22:22:48.900Z,2.00
2017-10-24T22:25:15.234Z,4.07
2017-10-24T22:27:41.531Z,3.15
2017-10-24T22:30:07.874Z,11.05
2017-10-24T22:32:34.167Z,10.85
2017-10-24T22:35:00.479Z,15.25
2017-10-24T22:37:27.558Z,12.93
2017-10-24T22:39:53.876Z,4.28
2017-10-24T22:42:20.194Z,3.60
2017-10-24T22:44:46.469Z,9.10
2017-10-24T22:47:17.069Z,6.00
2017-10-24T22:49:43.365Z,5.37
2017-10-24T22:52:10.423Z,4.93
2017-10-24T22:54:36.741Z,2.75
2017-10-24T22:57:03.835Z,4.25
2017-10-24T22:59:30.163Z,11.30
2017-10-24T23:01:56.476Z,13.90
2017-10-24T23:04:22.788Z,19.73
2017-10-24T23:06:49.081Z,25.00
2017-10-24T23:09:15.440Z,38.10
2017-10-24T23:11:41.746Z,24.17
2017-10-24T23:14:08.802Z,14.32
2017-10-24T23:16:35.841Z,15.73
2017-10-24T23:19:02.157Z,17.25
2017-10-24T23:21:28.750Z,18.80
2017-10-24T23:23:55.039Z,23.55
2017-10-24T23:26:22.076Z,13.73
2017-10-24T23:28:48.383Z,6.43
2017-10-24T23:31:14.687Z,3.20
2017-10-24T23:33:41.029Z,7.30
2017-10-24T23:36:07.314Z,60.97
2017-10-24T23:38:33.673Z,12.65
2017-10-24T23:40:59.982Z,7.65
2017-10-24T23:43:26.282Z,6.50
2017-10-24T23:45:53.384Z,7.22
2017-10-24T23:48:19.693Z,6.20
2017-10-24T23:50:46.272Z,6.93
2017-10-24T23:53:12.595Z,10.05
2017-10-24T23:55:38.879Z,5.00
2017-10-24T23:58:05.153Z,9.73
